Аэропорт: Мурманск. Мурманск

ICAO: ULMM

METAR:
2021-04-21 20:00:00
ULMM 212000Z 00000MPS CAVOK 01/M05 Q1004 R13/090070 NOSIG RMK QFE747
METAR:
2021-04-21 16:53:00
TAF ULMM 211653Z 2118/2218 16003G08MPS 9999 FEW030 TEMPO 2121/2201 1000 BR FEW002 BECMG 2201/2202 36003G08MPS BKN016 TEMPO 2202/2211 5000 -SHSNRA BKN016CB BECMG 2211/2212 6000 -SHSNRA BKN016CB TEMPO 2212/2218 34008G14MPS 1600 SHSNRA BKN006 BKN016CB